Latest Weather Observations for Charlton

IDV60801

Issued at 6:35 am EDT Saturday 1 November 2014 (issued every 30 minutes, with the page automatically refreshed every 10 minutes)

About weather observations | Map of weather stations | Latest weather observations for VIC | Other Formats
Station Details ID: 080128 Name: CHARLTON Lat: -36.28 Lon: 143.33 Height: 131.7 m
Data from the previous 72 hours. | See also: Recent months at Charlton
Date/Time
EDT
Temp
°C
App
Temp
°C
Dew
Point
Rel
Hum
%
Delta-T
°C
Wind Press
QNH
hPa
Press
MSL
hPa
Rain
since 9 am
mm
Dir
 
Spd
km/h
Gust
km/h
Spd
kts
Gust
kts
01/06:30am 13.0 9.9 11.7 92 0.7 W 19 30 10 16 1003.6 1003.4 2.2
01/06:00am 13.3 10.1 12.0 92 0.7 W 20 33 11 18 1003.2 1003.0 2.2
01/05:30am 13.3 9.9 12.4 94 0.5 W 22 39 12 21 1003.0 1002.8 2.2
01/05:00am 13.8 10.6 13.2 96 0.3 W 22 41 12 22 1002.0 1001.9 1.6
01/04:30am 14.3 12.7 12.9 91 0.8 W 13 20 7 11 1002.1 1002.0 0.4
01/04:00am 17.6 13.7 9.5 59 4.3 W 20 28 11 15 1001.9 1001.8 0.0
01/03:30am 18.2 16.0 7.9 51 5.3 SW 9 13 5 7 1000.6 1000.5 0.0
01/03:00am 18.4 16.2 7.8 50 5.5 SW 9 17 5 9 1000.3 1000.2 0.0
01/02:30am 18.4 14.7 8.1 51 5.3 SW 17 30 9 16 1000.4 1000.3 0.0
01/02:00am 18.9 14.5 7.4 47 5.9 WSW 20 35 11 19 1000.8 1000.7 0.0
01/01:30am 19.7 13.6 8.4 48 5.9 W 30 48 16 26 1000.1 1000.0 0.0
01/01:00am 22.1 15.2 6.3 36 8.1 W 32 52 17 28 1000.0 999.9 0.0
01/12:56am 22.8 16.6 6.1 34 8.5 W 28 52 15 28 999.9 999.8 0.0
01/12:30am 24.0 19.2 5.8 31 9.3 WSW 20 35 11 19 999.3 999.1 0.0
01/12:00am 25.1 20.0 4.3 26 10.5 WSW 20 33 11 18 999.2 999.0 0.0
 
Date/Time
EDT
Temp
°C
App
Temp
°C
Dew
Point
Rel
Hum
%
Delta-T
°C
Wind Press
QNH
hPa
Press
MSL
hPa
Rain
since 9 am
mm
Dir
 
Spd
km/h
Gust
km/h
Spd
kts
Gust
kts
31/11:30pm 26.4 21.2 2.3 21 11.8 WSW 19 30 10 16 998.7 998.5 0.0
31/11:00pm 28.4 23.8 -0.7 15 13.7 NNW 13 24 7 13 997.9 997.7 0.0
31/10:30pm 29.5 24.6 -0.8 14 14.3 N 15 24 8 13 997.9 997.7 0.0
31/10:00pm 30.1 24.7 -1.3 13 14.9 N 17 28 9 15 998.1 997.9 0.0
31/09:30pm 30.7 25.8 -0.8 13 15.0 N 15 22 8 12 998.3 998.1 0.0
31/09:00pm 31.2 25.8 -1.5 12 15.5 N 17 30 9 16 998.3 998.1 0.0
31/08:30pm 30.8 26.2 -0.8 13 15.1 N 13 20 7 11 998.4 998.2 0.0
31/08:00pm 31.3 25.9 -1.5 12 15.6 N 17 24 9 13 998.6 998.4 0.0
31/07:30pm 32.1 26.0 -2.0 11 16.1 N 20 28 11 15 998.7 998.5 0.0
31/07:00pm 33.2 27.3 -2.5 10 16.9 NW 19 41 10 22 998.9 998.7 0.0
31/06:30pm 34.0 26.8 -1.9 10 17.2 NW 26 41 14 22 999.4 999.2 0.0
31/06:00pm 32.8 26.4 -1.5 11 16.5 WNW 22 39 12 21 999.8 999.7 0.0
31/05:30pm 33.4 27.5 -1.0 11 16.6 WNW 20 28 11 15 999.9 999.8 0.0
31/05:00pm 33.4 26.7 -1.0 11 16.7 WNW 24 39 13 21 1000.2 1000.1 0.0
31/04:30pm 34.4 26.1 -0.3 11 17.1 NW 33 52 18 28 1000.7 1000.6 0.0
31/04:02pm 33.6 26.2 -0.9 11 16.7 WNW 28 48 15 26 1001.1 1001.0 0.0
31/04:00pm 33.8 26.8 -0.7 11 16.9 WNW 26 48 14 26 1001.1 1001.0 0.0
31/03:30pm 33.4 27.5 -1.0 11 16.6 WNW 20 26 11 14 1001.8 1001.7 0.0
31/03:00pm 33.4 25.6 -1.0 11 16.7 NNW 30 48 16 26 1002.6 1002.4 0.0
31/02:52pm 33.9 26.5 -0.7 11 16.9 NNW 28 48 15 26 1002.7 1002.5 0.0
31/02:30pm 33.1 26.2 -0.1 12 16.3 NNW 26 39 14 21 1003.4 1003.2 0.0
31/02:23pm 32.9 25.6 -0.2 12 16.2 NNW 28 48 15 26 1003.5 1003.3 0.0
31/02:00pm 32.3 25.4 0.4 13 15.7 N 26 39 14 21 1004.1 1003.9 0.0
31/01:30pm 31.1 25.4 0.5 14 14.9 N 20 35 11 19 1004.8 1004.6 0.0
31/01:00pm 30.1 24.4 0.6 15 14.4 N 20 33 11 18 1005.5 1005.3 0.0
31/12:30pm 29.2 24.4 2.5 18 13.3 N 17 26 9 14 1006.3 1006.2 0.0
31/12:00pm 26.5 21.4 3.1 22 11.6 NNE 19 26 10 14 1007.3 1007.2 0.0
31/11:30am 26.7 22.1 3.9 23 11.5 NNE 17 30 9 16 1007.9 1007.8 0.0
31/11:00am 25.1 21.1 4.8 27 10.3 NE 15 20 8 11 1008.3 1008.2 0.0
31/10:30am 22.0 18.2 5.8 35 8.2 NE 15 28 8 15 1008.8 1008.7 0.0
31/10:00am 21.3 17.5 6.0 37 7.7 NNE 15 19 8 10 1009.2 1009.1 0.0
31/09:30am 20.8 16.7 6.0 38 7.4 NE 17 24 9 13 1009.3 1009.2 0.0
31/09:00am 18.8 16.5 7.6 48 5.7 NE 9 15 5 8 1009.9 1009.8 0.0
31/08:30am 17.1 14.4 7.5 53 4.9 ENE 11 15 6 8 1010.0 1009.9 0.0
31/08:00am 15.5 13.6 7.5 59 4.0 ENE 7 11 4 6 1010.2 1010.1 0.0
31/07:30am 13.8 11.4 7.1 64 3.3 ENE 9 15 5 8 1010.0 1009.9 0.0
31/07:00am 11.8 9.0 5.2 64 3.1 ENE 9 13 5 7 1009.9 1009.8 0.0
31/06:30am 11.1 8.3 5.0 66 2.8 NE 9 13 5 7 1010.2 1010.1 0.0
31/06:00am 10.4 8.4 6.2 75 2.0 ENE 6 9 3 5 1010.0 1009.9 0.0
31/05:30am 10.0 7.9 5.8 75 1.9 SSE 6 7 3 4 1009.8 1009.7 0.0
31/05:00am 10.2 8.4 5.6 73 2.1 SSE 4 7 2 4 1010.0 1009.9 0.0
31/04:30am 9.9 8.5 5.5 74 2.0 S 2 6 1 3 1009.9 1009.8 0.0
31/04:00am 10.4 9.2 4.8 68 2.5 CALM 0 0 0 0 1010.1 1010.0 0.0
31/03:30am 10.1 8.1 4.3 67 2.6 S 4 7 2 4 1010.2 1010.1 0.0
31/03:00am 10.0 7.5 3.5 64 2.9 S 6 9 3 5 1010.5 1010.3 0.0
31/02:30am 9.9 8.5 3.6 65 2.8 CALM 0 0 0 0 1010.6 1010.4 0.0
31/02:00am 10.2 8.8 3.5 63 3.0 CALM 0 0 0 0 1011.0 1010.8 0.0
31/01:30am 10.7 9.3 3.3 60 3.3 CALM 0 0 0 0 1011.5 1011.3 0.0
31/01:00am 11.2 9.7 2.8 56 3.7 CALM 0 0 0 0 1011.8 1011.6 0.0
31/12:30am 11.6 9.7 2.6 54 3.9 S 2 6 1 3 1011.9 1011.7 0.0
31/12:00am 12.1 9.3 2.3 51 4.3 S 6 7 3 4 1012.4 1012.2 0.0
 
Date/Time
EDT
Temp
°C
App
Temp
°C
Dew
Point
Rel
Hum
%
Delta-T
°C
Wind Press
QNH
hPa
Press
MSL
hPa
Rain
since 9 am
mm
Dir
 
Spd
km/h
Gust
km/h
Spd
kts
Gust
kts
30/11:30pm 12.9 11.3 2.7 50 4.5 CALM 0 0 0 0 1012.5 1012.3 0.0
30/11:00pm 14.6 13.5 5.1 53 4.5 CALM 0 0 0 0 1012.6 1012.4 0.0
30/10:30pm 15.0 13.7 4.1 48 5.1 CALM 0 0 0 0 1012.7 1012.6 0.0
30/10:00pm 16.1 14.9 4.8 47 5.4 CALM 0 0 0 0 1012.6 1012.4 0.0
30/09:30pm 16.6 15.1 3.0 40 6.2 CALM 0 0 0 0 1012.3 1012.1 0.0
30/09:00pm 18.4 16.9 3.1 36 7.2 CALM 0 0 0 0 1012.3 1012.1 0.0
30/08:30pm 20.2 18.0 3.4 33 8.0 SW 4 7 2 4 1012.0 1011.8 0.0
30/08:00pm 22.6 19.7 2.7 27 9.5 WSW 7 9 4 5 1011.8 1011.6 0.0
30/07:30pm 24.4 21.0 1.9 23 10.7 W 9 17 5 9 1011.6 1011.4 0.0
30/07:00pm 25.9 21.6 1.2 20 11.8 WSW 13 20 7 11 1011.6 1011.4 0.0
30/06:30pm 26.7 22.4 1.2 19 12.2 W 13 20 7 11 1011.5 1011.3 0.0
30/06:00pm 26.9 22.8 2.1 20 12.1 W 13 22 7 12 1011.6 1011.4 0.0
30/05:30pm 26.9 21.6 2.1 20 12.1 W 19 30 10 16 1011.6 1011.4 0.0
30/05:00pm 27.2 22.3 2.3 20 12.2 W 17 26 9 14 1011.8 1011.6 0.0
30/04:30pm 26.7 22.5 1.9 20 12.0 W 13 20 7 11 1011.9 1011.7 0.0
30/04:00pm 26.8 22.3 2.0 20 12.1 W 15 22 8 12 1011.9 1011.7 0.0
30/03:30pm 26.8 22.2 1.3 19 12.3 W 15 26 8 14 1012.1 1011.9 0.0
30/03:00pm 26.0 22.6 3.9 24 11.1 W 11 22 6 12 1012.5 1012.3 0.0
30/02:30pm 25.7 22.3 4.2 25 10.8 WSW 11 24 6 13 1013.0 1012.9 0.0
30/02:00pm 24.6 21.0 4.9 28 10.0 W 13 22 7 12 1013.5 1013.4 0.0
30/01:30pm 24.4 21.0 5.7 30 9.6 W 13 30 7 16 1013.8 1013.7 0.0
30/01:00pm 23.4 19.7 6.2 33 8.8 W 15 24 8 13 1014.0 1013.9 0.0
30/12:30pm 23.1 19.9 6.8 35 8.4 WNW 13 24 7 13 1014.3 1014.2 0.0
30/12:00pm 22.2 19.3 8.3 41 7.4 W 13 20 7 11 1014.7 1014.6 0.0
30/11:30am 21.8 19.0 8.7 43 7.0 NW 13 19 7 10 1014.9 1014.8 0.0
30/11:00am 21.2 18.9 9.1 46 6.5 W 11 19 6 10 1015.0 1014.9 0.0
30/10:30am 19.3 17.8 9.2 52 5.4 W 7 13 4 7 1015.2 1015.1 0.0
30/10:00am 19.0 17.7 9.8 55 4.9 WSW 7 9 4 5 1015.5 1015.4 0.0
30/09:30am 17.3 15.6 9.7 61 4.0 S 9 13 5 7 1015.9 1015.8 0.0
30/09:00am 16.2 14.6 10.3 68 3.1 SSW 9 13 5 7 1016.1 1016.0 0.0
30/08:30am 14.0 12.6 9.4 74 2.4 SSW 7 9 4 5 1015.8 1015.7 0.0
30/08:00am 12.2 10.7 9.2 82 1.5 SW 7 11 4 6 1015.6 1015.5 0.0
30/07:30am 10.6 9.3 9.2 91 0.7 SW 6 9 3 5 1015.1 1015.0 0.0
30/07:00am 8.6 8.0 7.5 93 0.5 CALM 0 0 0 0 1014.7 1014.6 0.0
30/06:30am 8.7 8.1 7.6 93 0.5 CALM 0 6 0 3 1014.8 1014.7 0.0
30/06:00am 8.6 6.9 7.4 92 0.6 S 6 7 3 4 1015.2 1015.1 0.0
30/05:30am 9.2 8.7 7.8 91 0.7 CALM 0 2 0 1 1014.7 1014.6 0.0
30/05:00am 9.9 9.5 8.3 90 0.8 CALM 0 0 0 0 1014.4 1014.3 0.0
30/04:30am 10.3 8.7 8.2 87 1.0 SSW 6 7 3 4 1014.3 1014.2 0.0
30/04:00am 11.1 9.5 8.1 82 1.5 WSW 6 9 3 5 1014.3 1014.2 0.0
30/03:30am 11.7 10.4 7.8 77 1.9 SW 4 7 2 4 1014.2 1014.1 0.0
30/03:00am 12.4 11.3 8.3 76 2.0 S 4 7 2 4 1014.2 1014.1 0.0
30/02:30am 12.4 10.7 7.5 72 2.4 S 6 7 3 4 1014.3 1014.2 0.0
30/02:00am 12.7 10.7 7.0 68 2.8 S 7 11 4 6 1014.5 1014.4 0.0
30/01:30am 12.4 10.8 6.5 67 2.8 S 4 7 2 4 1014.7 1014.6 0.0
30/01:00am 13.4 11.8 6.5 63 3.3 SSE 4 9 2 5 1014.8 1014.7 0.0
30/12:30am 14.8 12.9 6.9 59 3.9 S 6 9 3 5 1015.1 1015.0 0.0
30/12:00am 16.0 13.3 7.2 56 4.4 SW 11 20 6 11 1015.3 1015.2 0.0
 
Date/Time
EDT
Temp
°C
App
Temp
°C
Dew
Point
Rel
Hum
%
Delta-T
°C
Wind Press
QNH
hPa
Press
MSL
hPa
Rain
since 9 am
mm
Dir
 
Spd
km/h
Gust
km/h
Spd
kts
Gust
kts
29/11:30pm 16.2 13.4 6.9 54 4.6 SW 11 17 6 9 1015.3 1015.2 0.0
29/11:00pm 16.6 14.1 6.4 51 5.0 SW 9 13 5 7 1015.4 1015.3 0.0
29/10:30pm 17.5 14.6 6.4 48 5.5 WSW 11 17 6 9 1015.4 1015.3 0.0
29/10:00pm 18.2 15.7 6.7 47 5.8 WSW 9 15 5 8 1015.3 1015.2 0.0
29/09:30pm 18.9 16.4 6.7 45 6.1 WSW 9 13 5 7 1015.3 1015.2 0.0
29/09:00pm 19.4 16.8 6.2 42 6.6 WSW 9 17 5 9 1015.2 1015.1 0.0
29/08:30pm 20.3 17.7 5.9 39 7.2 WSW 9 13 5 7 1015.0 1014.9 0.0
29/08:00pm 21.6 19.0 6.3 37 7.8 W 9 15 5 8 1014.9 1014.8 0.0
29/07:30pm 22.5 19.5 5.9 34 8.4 W 11 17 6 9 1014.7 1014.6 0.0
29/07:00pm 23.9 19.8 6.2 32 9.1 W 17 26 9 14 1014.4 1014.3 0.0
29/06:30pm 24.5 20.7 5.8 30 9.6 W 15 22 8 12 1014.5 1014.4 0.0
29/06:00pm 24.7 20.6 6.0 30 9.6 W 17 28 9 15 1014.5 1014.4 0.0
29/05:30pm 25.0 20.3 5.2 28 10.1 W 19 28 10 15 1014.5 1014.4 0.0
29/05:00pm 25.2 20.9 5.4 28 10.1 WNW 17 28 9 15 1014.6 1014.5 0.0
29/04:30pm 25.1 20.8 5.3 28 10.1 WNW 17 28 9 15 1014.8 1014.7 0.0
29/04:00pm 24.6 20.3 5.4 29 9.8 W 17 30 9 16 1015.0 1014.9 0.0
29/03:30pm 24.2 20.3 5.5 30 9.5 W 15 30 8 16 1015.4 1015.3 0.0
29/03:00pm 23.9 19.8 6.2 32 9.1 WNW 17 24 9 13 1016.0 1015.9 0.0
29/02:30pm 23.5 20.2 6.3 33 8.9 W 13 26 7 14 1016.3 1016.2 0.0
29/02:00pm 22.7 19.7 6.0 34 8.5 W 11 20 6 11 1016.7 1016.6 0.0
29/01:30pm 21.4 18.0 5.7 36 7.9 WNW 13 22 7 12 1017.3 1017.2 0.0
29/01:00pm 20.4 16.9 5.6 38 7.4 WNW 13 24 7 13 1017.7 1017.6 0.0
29/12:30pm 20.2 17.5 7.2 43 6.7 W 11 20 6 11 1018.1 1018.0 0.0
29/12:00pm 19.8 16.6 6.9 43 6.5 NW 13 20 7 11 1018.7 1018.5 0.0
29/11:30am 18.9 16.1 7.0 46 6.0 W 11 20 6 11 1019.2 1019.1 0.0
29/11:00am 17.4 14.9 6.6 49 5.4 WSW 9 19 5 10 1019.5 1019.4 0.0
29/10:30am 16.6 14.1 6.7 52 4.9 SSW 9 19 5 10 1019.7 1019.6 0.0
29/10:00am 15.7 13.2 6.7 55 4.4 W 9 13 5 7 1019.7 1019.6 0.0
29/09:30am 15.2 12.8 7.2 59 4.0 SW 9 13 5 7 1019.7 1019.6 0.0
29/09:00am 14.2 12.3 7.7 65 3.2 SSW 7 11 4 6 1019.8 1019.7 0.0
29/08:30am 12.3 10.1 8.0 75 2.1 W 9 13 5 7 1019.9 1019.8 0.0
29/08:00am 10.5 8.8 7.7 83 1.4 W 6 9 3 5 1020.0 1019.9 0.0
29/07:30am 8.6 7.7 7.8 95 0.4 WNW 2 9 1 5 1019.8 1019.7 0.0
29/07:00am 6.2 5.2 5.5 95 0.3 CALM 0 0 0 0 1019.6 1019.5 0.0

Other Formats:

Comma delimited format used in spreadsheet applications
http://www.bom.gov.au/fwo/IDV60801/IDV60801.94839.axf

JavaScript Object Notation format (JSON) in row-major order
http://www.bom.gov.au/fwo/IDV60801/IDV60801.94839.json